sensor_id;sensor_type;location;lat;lon;timestamp;P1;durP1;ratioP1;P2;durP2;ratioP2
48987;SDS011;34799;51.440;-2.534;2023-02-28T00:01:12;6.00;;;0.70;;
48987;SDS011;34799;51.440;-2.534;2023-02-28T00:03:40;2.67;;;0.65;;
48987;SDS011;34799;51.440;-2.534;2023-02-28T00:06:07;4.55;;;0.55;;
48987;SDS011;34799;51.440;-2.534;2023-02-28T00:08:37;5.53;;;0.90;;
48987;SDS011;34799;51.440;-2.534;2023-02-28T00:11:05;5.65;;;0.55;;
48987;SDS011;34799;51.440;-2.534;2023-02-28T00:13:34;5.28;;;1.10;;
48987;SDS011;34799;51.440;-2.534;2023-02-28T00:16:05;7.07;;;0.60;;
48987;SDS011;34799;51.440;-2.534;2023-02-28T00:18:38;5.20;;;0.85;;
48987;SDS011;34799;51.440;-2.534;2023-02-28T00:21:07;4.10;;;0.80;;
48987;SDS011;34799;51.440;-2.534;2023-02-28T00:23:35;4.18;;;0.60;;
48987;SDS011;34799;51.440;-2.534;2023-02-28T00:26:02;6.47;;;0.68;;
48987;SDS011;34799;51.440;-2.534;2023-02-28T00:28:30;6.20;;;0.75;;
48987;SDS011;34799;51.440;-2.534;2023-02-28T00:30:58;5.03;;;0.70;;
48987;SDS011;34799;51.440;-2.534;2023-02-28T00:33:28;5.90;;;0.60;;
48987;SDS011;34799;51.440;-2.534;2023-02-28T00:36:17;5.05;;;1.73;;
48987;SDS011;34799;51.440;-2.534;2023-02-28T00:38:43;7.55;;;0.90;;
48987;SDS011;34799;51.440;-2.534;2023-02-28T00:41:10;5.00;;;0.63;;
48987;SDS011;34799;51.440;-2.534;2023-02-28T00:43:38;3.90;;;0.57;;
48987;SDS011;34799;51.440;-2.534;2023-02-28T00:46:06;6.03;;;1.05;;
48987;SDS011;34799;51.440;-2.534;2023-02-28T00:48:33;3.45;;;1.08;;
48987;SDS011;34799;51.440;-2.534;2023-02-28T00:51:01;8.68;;;1.40;;
48987;SDS011;34799;51.440;-2.534;2023-02-28T00:53:30;4.93;;;0.95;;
48987;SDS011;34799;51.440;-2.534;2023-02-28T00:55:58;4.15;;;1.17;;
48987;SDS011;34799;51.440;-2.534;2023-02-28T00:58:26;6.63;;;1.40;;
48987;SDS011;34799;51.440;-2.534;2023-02-28T01:00:54;6.25;;;1.50;;
48987;SDS011;34799;51.440;-2.534;2023-02-28T01:03:22;4.60;;;1.55;;
48987;SDS011;34799;51.440;-2.534;2023-02-28T01:05:49;4.72;;;1.52;;
48987;SDS011;34799;51.440;-2.534;2023-02-28T01:08:16;14.68;;;3.60;;
48987;SDS011;34799;51.440;-2.534;2023-02-28T01:10:43;12.98;;;3.70;;
48987;SDS011;34799;51.440;-2.534;2023-02-28T01:13:11;7.40;;;1.88;;
48987;SDS011;34799;51.440;-2.534;2023-02-28T01:15:48;8.40;;;2.10;;
48987;SDS011;34799;51.440;-2.534;2023-02-28T01:18:18;4.90;;;1.50;;
48987;SDS011;34799;51.440;-2.534;2023-02-28T01:20:46;5.75;;;1.30;;
48987;SDS011;34799;51.440;-2.534;2023-02-28T01:23:16;7.95;;;1.45;;
48987;SDS011;34799;51.440;-2.534;2023-02-28T01:25:45;5.13;;;1.30;;
48987;SDS011;34799;51.440;-2.534;2023-02-28T01:28:12;4.68;;;1.30;;
48987;SDS011;34799;51.440;-2.534;2023-02-28T01:30:39;9.95;;;1.42;;
48987;SDS011;34799;51.440;-2.534;2023-02-28T01:33:07;5.95;;;1.15;;
48987;SDS011;34799;51.440;-2.534;2023-02-28T01:35:35;4.00;;;0.95;;
48987;SDS011;34799;51.440;-2.534;2023-02-28T01:38:02;4.45;;;1.25;;
48987;SDS011;34799;51.440;-2.534;2023-02-28T01:40:46;3.65;;;0.90;;
48987;SDS011;34799;51.440;-2.534;2023-02-28T01:43:19;7.22;;;0.88;;
48987;SDS011;34799;51.440;-2.534;2023-02-28T01:45:49;6.55;;;1.15;;
48987;SDS011;34799;51.440;-2.534;2023-02-28T01:48:17;10.13;;;1.38;;
48987;SDS011;34799;51.440;-2.534;2023-02-28T01:50:47;6.38;;;1.00;;
48987;SDS011;34799;51.440;-2.534;2023-02-28T01:53:19;3.05;;;0.82;;
48987;SDS011;34799;51.440;-2.534;2023-02-28T01:55:54;5.80;;;0.80;;
48987;SDS011;34799;51.440;-2.534;2023-02-28T01:58:22;6.90;;;0.65;;
48987;SDS011;34799;51.440;-2.534;2023-02-28T02:00:49;5.55;;;0.98;;
48987;SDS011;34799;51.440;-2.534;2023-02-28T02:03:17;3.38;;;0.85;;
48987;SDS011;34799;51.440;-2.534;2023-02-28T02:05:46;3.65;;;0.70;;
48987;SDS011;34799;51.440;-2.534;2023-02-28T02:08:19;4.53;;;0.80;;
48987;SDS011;34799;51.440;-2.534;2023-02-28T02:10:54;3.78;;;1.05;;
48987;SDS011;34799;51.440;-2.534;2023-02-28T02:38:47;7.32;;;1.35;;
48987;SDS011;34799;51.440;-2.534;2023-02-28T02:44:00;2.72;;;0.90;;
48987;SDS011;34799;51.440;-2.534;2023-02-28T02:46:34;5.93;;;1.05;;
48987;SDS011;34799;51.440;-2.534;2023-02-28T02:49:08;4.95;;;1.20;;
48987;SDS011;34799;51.440;-2.534;2023-02-28T02:51:42;8.57;;;1.20;;
48987;SDS011;34799;51.440;-2.534;2023-02-28T02:54:13;4.43;;;1.45;;
48987;SDS011;34799;51.440;-2.534;2023-02-28T02:56:48;5.22;;;1.10;;
48987;SDS011;34799;51.440;-2.534;2023-02-28T02:59:18;4.28;;;0.90;;
48987;SDS011;34799;51.440;-2.534;2023-02-28T03:01:52;3.90;;;0.70;;
48987;SDS011;34799;51.440;-2.534;2023-02-28T03:04:22;4.00;;;0.70;;
48987;SDS011;34799;51.440;-2.534;2023-02-28T03:06:53;6.78;;;0.88;;
48987;SDS011;34799;51.440;-2.534;2023-02-28T03:09:21;5.45;;;1.23;;
48987;SDS011;34799;51.440;-2.534;2023-02-28T03:11:49;9.65;;;0.88;;
48987;SDS011;34799;51.440;-2.534;2023-02-28T03:22:21;2.33;;;0.65;;
48987;SDS011;34799;51.440;-2.534;2023-02-28T03:24:55;4.70;;;0.60;;
48987;SDS011;34799;51.440;-2.534;2023-02-28T03:27:46;3.05;;;0.77;;
48987;SDS011;34799;51.440;-2.534;2023-02-28T03:30:22;5.53;;;1.13;;
48987;SDS011;34799;51.440;-2.534;2023-02-28T03:35:32;4.30;;;0.80;;
48987;SDS011;34799;51.440;-2.534;2023-02-28T03:38:14;3.05;;;0.60;;
48987;SDS011;34799;51.440;-2.534;2023-02-28T03:41:04;4.43;;;0.55;;
48987;SDS011;34799;51.440;-2.534;2023-02-28T03:43:43;3.00;;;0.50;;
48987;SDS011;34799;51.440;-2.534;2023-02-28T03:46:17;1.38;;;0.50;;
48987;SDS011;34799;51.440;-2.534;2023-02-28T03:48:52;4.22;;;0.63;;
48987;SDS011;34799;51.440;-2.534;2023-02-28T03:51:24;4.47;;;0.60;;
48987;SDS011;34799;51.440;-2.534;2023-02-28T03:53:54;1.13;;;0.65;;
48987;SDS011;34799;51.440;-2.534;2023-02-28T03:56:30;1.95;;;0.70;;
48987;SDS011;34799;51.440;-2.534;2023-02-28T03:59:05;3.78;;;0.73;;
48987;SDS011;34799;51.440;-2.534;2023-02-28T04:01:44;6.90;;;0.97;;
48987;SDS011;34799;51.440;-2.534;2023-02-28T04:04:14;2.97;;;1.05;;
48987;SDS011;34799;51.440;-2.534;2023-02-28T04:06:42;2.58;;;1.15;;
48987;SDS011;34799;51.440;-2.534;2023-02-28T04:09:11;5.47;;;1.48;;
48987;SDS011;34799;51.440;-2.534;2023-02-28T04:11:41;3.33;;;1.80;;
48987;SDS011;34799;51.440;-2.534;2023-02-28T04:14:10;3.80;;;1.50;;
48987;SDS011;34799;51.440;-2.534;2023-02-28T04:16:40;5.60;;;1.67;;
48987;SDS011;34799;51.440;-2.534;2023-02-28T04:19:08;5.68;;;1.55;;
48987;SDS011;34799;51.440;-2.534;2023-02-28T04:21:38;7.57;;;1.55;;
48987;SDS011;34799;51.440;-2.534;2023-02-28T04:24:13;6.63;;;2.05;;
48987;SDS011;34799;51.440;-2.534;2023-02-28T04:26:45;2.90;;;1.65;;
48987;SDS011;34799;51.440;-2.534;2023-02-28T04:29:17;6.75;;;1.73;;
48987;SDS011;34799;51.440;-2.534;2023-02-28T04:31:47;2.78;;;1.42;;
48987;SDS011;34799;51.440;-2.534;2023-02-28T04:34:14;3.72;;;1.70;;
48987;SDS011;34799;51.440;-2.534;2023-02-28T04:36:43;6.15;;;2.00;;
48987;SDS011;34799;51.440;-2.534;2023-02-28T04:39:12;5.88;;;1.65;;
48987;SDS011;34799;51.440;-2.534;2023-02-28T04:41:39;7.70;;;1.70;;
48987;SDS011;34799;51.440;-2.534;2023-02-28T04:44:06;4.13;;;1.58;;
48987;SDS011;34799;51.440;-2.534;2023-02-28T04:46:33;3.35;;;1.45;;
48987;SDS011;34799;51.440;-2.534;2023-02-28T04:49:02;5.60;;;1.70;;
48987;SDS011;34799;51.440;-2.534;2023-02-28T04:51:29;3.55;;;1.23;;
48987;SDS011;34799;51.440;-2.534;2023-02-28T04:53:57;3.38;;;1.50;;
48987;SDS011;34799;51.440;-2.534;2023-02-28T04:56:24;3.95;;;1.52;;
48987;SDS011;34799;51.440;-2.534;2023-02-28T04:58:51;3.53;;;1.60;;
48987;SDS011;34799;51.440;-2.534;2023-02-28T05:06:26;2.97;;;1.30;;
48987;SDS011;34799;51.440;-2.534;2023-02-28T05:08:54;8.38;;;2.08;;
48987;SDS011;34799;51.440;-2.534;2023-02-28T05:11:24;6.72;;;2.33;;
48987;SDS011;34799;51.440;-2.534;2023-02-28T05:13:52;4.45;;;1.77;;
48987;SDS011;34799;51.440;-2.534;2023-02-28T05:16:20;5.10;;;1.70;;
48987;SDS011;34799;51.440;-2.534;2023-02-28T05:18:47;3.17;;;1.73;;
48987;SDS011;34799;51.440;-2.534;2023-02-28T05:21:23;3.47;;;1.30;;
48987;SDS011;34799;51.440;-2.534;2023-02-28T05:23:53;3.75;;;1.77;;
48987;SDS011;34799;51.440;-2.534;2023-02-28T05:26:21;7.07;;;1.85;;
48987;SDS011;34799;51.440;-2.534;2023-02-28T05:28:48;4.18;;;1.60;;
48987;SDS011;34799;51.440;-2.534;2023-02-28T05:31:16;5.70;;;1.33;;
48987;SDS011;34799;51.440;-2.534;2023-02-28T05:33:44;77.40;;;33.47;;
48987;SDS011;34799;51.440;-2.534;2023-02-28T05:36:12;18.80;;;6.85;;
48987;SDS011;34799;51.440;-2.534;2023-02-28T05:38:39;5.93;;;2.38;;
48987;SDS011;34799;51.440;-2.534;2023-02-28T05:41:10;4.50;;;1.92;;
48987;SDS011;34799;51.440;-2.534;2023-02-28T05:43:38;5.07;;;2.25;;
48987;SDS011;34799;51.440;-2.534;2023-02-28T05:46:05;3.00;;;1.30;;
48987;SDS011;34799;51.440;-2.534;2023-02-28T05:48:34;4.10;;;1.60;;
48987;SDS011;34799;51.440;-2.534;2023-02-28T05:51:04;2.60;;;1.58;;
48987;SDS011;34799;51.440;-2.534;2023-02-28T05:53:31;3.03;;;1.35;;
48987;SDS011;34799;51.440;-2.534;2023-02-28T05:55:59;4.95;;;1.30;;
48987;SDS011;34799;51.440;-2.534;2023-02-28T05:58:26;2.85;;;1.13;;
48987;SDS011;34799;51.440;-2.534;2023-02-28T06:00:57;2.15;;;1.10;;
48987;SDS011;34799;51.440;-2.534;2023-02-28T06:03:25;3.20;;;1.30;;
48987;SDS011;34799;51.440;-2.534;2023-02-28T06:05:52;2.53;;;1.35;;
48987;SDS011;34799;51.440;-2.534;2023-02-28T06:08:20;5.03;;;1.63;;
48987;SDS011;34799;51.440;-2.534;2023-02-28T06:10:48;3.85;;;1.60;;
48987;SDS011;34799;51.440;-2.534;2023-02-28T06:13:16;3.47;;;1.67;;
48987;SDS011;34799;51.440;-2.534;2023-02-28T06:15:43;3.78;;;2.00;;
48987;SDS011;34799;51.440;-2.534;2023-02-28T06:18:10;8.65;;;2.70;;
48987;SDS011;34799;51.440;-2.534;2023-02-28T06:20:37;7.03;;;2.75;;
48987;SDS011;34799;51.440;-2.534;2023-02-28T06:23:04;5.80;;;2.63;;
48987;SDS011;34799;51.440;-2.534;2023-02-28T06:25:33;5.40;;;2.63;;
48987;SDS011;34799;51.440;-2.534;2023-02-28T06:28:00;8.50;;;2.45;;
48987;SDS011;34799;51.440;-2.534;2023-02-28T06:30:27;5.30;;;2.40;;
48987;SDS011;34799;51.440;-2.534;2023-02-28T06:32:56;5.50;;;2.95;;
48987;SDS011;34799;51.440;-2.534;2023-02-28T06:35:23;7.15;;;2.53;;
48987;SDS011;34799;51.440;-2.534;2023-02-28T06:37:50;7.25;;;3.70;;
48987;SDS011;34799;51.440;-2.534;2023-02-28T06:40:18;8.32;;;3.75;;
48987;SDS011;34799;51.440;-2.534;2023-02-28T06:42:45;7.25;;;4.05;;
48987;SDS011;34799;51.440;-2.534;2023-02-28T06:45:12;9.25;;;4.82;;
48987;SDS011;34799;51.440;-2.534;2023-02-28T06:47:40;9.55;;;5.22;;
48987;SDS011;34799;51.440;-2.534;2023-02-28T06:50:11;11.07;;;5.60;;
48987;SDS011;34799;51.440;-2.534;2023-02-28T06:52:39;8.40;;;4.22;;
48987;SDS011;34799;51.440;-2.534;2023-02-28T06:55:06;9.73;;;4.78;;
48987;SDS011;34799;51.440;-2.534;2023-02-28T06:57:35;11.60;;;5.40;;
48987;SDS011;34799;51.440;-2.534;2023-02-28T07:00:05;9.68;;;5.50;;
48987;SDS011;34799;51.440;-2.534;2023-02-28T07:02:35;11.02;;;5.65;;
48987;SDS011;34799;51.440;-2.534;2023-02-28T07:05:05;10.07;;;6.07;;
48987;SDS011;34799;51.440;-2.534;2023-02-28T07:07:32;10.55;;;5.38;;
48987;SDS011;34799;51.440;-2.534;2023-02-28T07:09:59;11.02;;;6.00;;
48987;SDS011;34799;51.440;-2.534;2023-02-28T07:12:26;9.43;;;6.15;;
48987;SDS011;34799;51.440;-2.534;2023-02-28T07:14:53;12.02;;;6.13;;
48987;SDS011;34799;51.440;-2.534;2023-02-28T07:17:23;12.15;;;6.35;;
48987;SDS011;34799;51.440;-2.534;2023-02-28T07:19:51;12.25;;;6.80;;
48987;SDS011;34799;51.440;-2.534;2023-02-28T07:22:18;14.02;;;6.93;;
48987;SDS011;34799;51.440;-2.534;2023-02-28T07:24:45;12.23;;;6.90;;
48987;SDS011;34799;51.440;-2.534;2023-02-28T07:27:12;12.30;;;6.43;;
48987;SDS011;34799;51.440;-2.534;2023-02-28T07:29:52;17.35;;;7.40;;
48987;SDS011;34799;51.440;-2.534;2023-02-28T07:32:19;13.02;;;7.15;;
48987;SDS011;34799;51.440;-2.534;2023-02-28T07:34:46;14.15;;;7.40;;
48987;SDS011;34799;51.440;-2.534;2023-02-28T07:37:14;14.52;;;7.47;;
48987;SDS011;34799;51.440;-2.534;2023-02-28T07:39:41;12.15;;;7.00;;
48987;SDS011;34799;51.440;-2.534;2023-02-28T07:42:08;19.85;;;8.02;;
48987;SDS011;34799;51.440;-2.534;2023-02-28T07:44:39;15.07;;;8.25;;
48987;SDS011;34799;51.440;-2.534;2023-02-28T07:47:07;15.88;;;8.23;;
48987;SDS011;34799;51.440;-2.534;2023-02-28T07:49:35;16.60;;;7.43;;
48987;SDS011;34799;51.440;-2.534;2023-02-28T07:52:04;14.27;;;7.68;;
48987;SDS011;34799;51.440;-2.534;2023-02-28T07:54:33;12.60;;;7.25;;
48987;SDS011;34799;51.440;-2.534;2023-02-28T07:57:00;12.63;;;7.57;;
48987;SDS011;34799;51.440;-2.534;2023-02-28T07:59:27;17.00;;;7.43;;
48987;SDS011;34799;51.440;-2.534;2023-02-28T08:01:58;13.18;;;7.68;;
48987;SDS011;34799;51.440;-2.534;2023-02-28T08:04:25;13.65;;;6.53;;
48987;SDS011;34799;51.440;-2.534;2023-02-28T08:06:52;13.27;;;6.55;;
48987;SDS011;34799;51.440;-2.534;2023-02-28T08:09:20;11.75;;;6.28;;
48987;SDS011;34799;51.440;-2.534;2023-02-28T08:11:47;15.25;;;7.63;;
48987;SDS011;34799;51.440;-2.534;2023-02-28T08:14:14;11.95;;;6.70;;
48987;SDS011;34799;51.440;-2.534;2023-02-28T08:16:42;14.45;;;7.35;;
48987;SDS011;34799;51.440;-2.534;2023-02-28T08:19:09;12.07;;;6.78;;
48987;SDS011;34799;51.440;-2.534;2023-02-28T08:21:36;12.48;;;7.30;;
48987;SDS011;34799;51.440;-2.534;2023-02-28T08:24:03;13.05;;;6.93;;
48987;SDS011;34799;51.440;-2.534;2023-02-28T08:26:30;12.85;;;6.88;;
48987;SDS011;34799;51.440;-2.534;2023-02-28T08:28:58;13.73;;;6.70;;
48987;SDS011;34799;51.440;-2.534;2023-02-28T08:31:27;12.93;;;7.07;;
48987;SDS011;34799;51.440;-2.534;2023-02-28T08:33:54;12.23;;;6.53;;
48987;SDS011;34799;51.440;-2.534;2023-02-28T08:36:25;10.48;;;6.22;;
48987;SDS011;34799;51.440;-2.534;2023-02-28T08:38:56;13.30;;;6.50;;
48987;SDS011;34799;51.440;-2.534;2023-02-28T08:41:23;17.67;;;7.10;;
48987;SDS011;34799;51.440;-2.534;2023-02-28T08:43:50;11.32;;;6.13;;
48987;SDS011;34799;51.440;-2.534;2023-02-28T08:46:17;12.55;;;7.03;;
48987;SDS011;34799;51.440;-2.534;2023-02-28T08:48:44;12.43;;;6.65;;
48987;SDS011;34799;51.440;-2.534;2023-02-28T08:51:13;14.77;;;5.97;;
48987;SDS011;34799;51.440;-2.534;2023-02-28T08:53:47;11.38;;;6.28;;
48987;SDS011;34799;51.440;-2.534;2023-02-28T08:56:17;10.90;;;5.75;;
48987;SDS011;34799;51.440;-2.534;2023-02-28T08:58:45;11.23;;;5.93;;
48987;SDS011;34799;51.440;-2.534;2023-02-28T09:01:16;9.63;;;5.57;;
48987;SDS011;34799;51.440;-2.534;2023-02-28T09:03:45;13.35;;;5.72;;
48987;SDS011;34799;51.440;-2.534;2023-02-28T09:06:15;10.07;;;5.90;;
48987;SDS011;34799;51.440;-2.534;2023-02-28T09:08:43;10.63;;;5.55;;
48987;SDS011;34799;51.440;-2.534;2023-02-28T09:11:11;10.93;;;5.85;;
48987;SDS011;34799;51.440;-2.534;2023-02-28T09:13:39;13.77;;;6.43;;
48987;SDS011;34799;51.440;-2.534;2023-02-28T09:16:10;10.35;;;5.88;;
48987;SDS011;34799;51.440;-2.534;2023-02-28T09:18:39;10.80;;;5.75;;
48987;SDS011;34799;51.440;-2.534;2023-02-28T09:21:07;14.55;;;6.15;;
48987;SDS011;34799;51.440;-2.534;2023-02-28T09:23:40;9.88;;;5.20;;
48987;SDS011;34799;51.440;-2.534;2023-02-28T09:26:16;12.23;;;6.32;;
48987;SDS011;34799;51.440;-2.534;2023-02-28T09:28:46;12.80;;;6.18;;
48987;SDS011;34799;51.440;-2.534;2023-02-28T09:31:14;13.23;;;6.97;;
48987;SDS011;34799;51.440;-2.534;2023-02-28T09:33:43;11.45;;;6.28;;
48987;SDS011;34799;51.440;-2.534;2023-02-28T09:36:10;14.95;;;7.75;;
48987;SDS011;34799;51.440;-2.534;2023-02-28T09:38:38;14.68;;;7.25;;
48987;SDS011;34799;51.440;-2.534;2023-02-28T09:41:12;13.45;;;7.28;;
48987;SDS011;34799;51.440;-2.534;2023-02-28T09:43:44;14.63;;;7.10;;
48987;SDS011;34799;51.440;-2.534;2023-02-28T09:46:21;16.38;;;7.78;;
48987;SDS011;34799;51.440;-2.534;2023-02-28T09:48:52;15.00;;;7.70;;
48987;SDS011;34799;51.440;-2.534;2023-02-28T09:53:59;15.13;;;7.05;;
48987;SDS011;34799;51.440;-2.534;2023-02-28T09:56:30;16.42;;;7.20;;
48987;SDS011;34799;51.440;-2.534;2023-02-28T09:59:05;12.80;;;7.30;;
48987;SDS011;34799;51.440;-2.534;2023-02-28T10:01:39;13.80;;;7.10;;
48987;SDS011;34799;51.440;-2.534;2023-02-28T10:07:18;16.45;;;7.35;;
48987;SDS011;34799;51.440;-2.534;2023-02-28T10:09:50;13.90;;;7.10;;
48987;SDS011;34799;51.440;-2.534;2023-02-28T10:12:21;12.60;;;7.03;;
48987;SDS011;34799;51.440;-2.534;2023-02-28T10:14:51;12.00;;;6.78;;
48987;SDS011;34799;51.440;-2.534;2023-02-28T10:17:21;14.82;;;6.95;;
48987;SDS011;34799;51.440;-2.534;2023-02-28T10:20:02;14.00;;;6.60;;
48987;SDS011;34799;51.440;-2.534;2023-02-28T10:23:24;11.88;;;5.97;;
48987;SDS011;34799;51.440;-2.534;2023-02-28T10:25:34;12.88;;;5.90;;
48987;SDS011;34799;51.440;-2.534;2023-02-28T10:28:14;11.18;;;6.00;;
48987;SDS011;34799;51.440;-2.534;2023-02-28T10:30:42;14.60;;;6.15;;
48987;SDS011;34799;51.440;-2.534;2023-02-28T10:33:18;12.55;;;5.93;;
48987;SDS011;34799;51.440;-2.534;2023-02-28T10:35:51;12.88;;;5.35;;
48987;SDS011;34799;51.440;-2.534;2023-02-28T10:38:29;11.48;;;5.43;;
48987;SDS011;34799;51.440;-2.534;2023-02-28T10:41:05;12.52;;;5.32;;
48987;SDS011;34799;51.440;-2.534;2023-02-28T10:43:42;10.20;;;5.43;;
48987;SDS011;34799;51.440;-2.534;2023-02-28T10:46:15;11.52;;;5.70;;
48987;SDS011;34799;51.440;-2.534;2023-02-28T10:49:06;15.45;;;6.40;;
48987;SDS011;34799;51.440;-2.534;2023-02-28T10:51:41;12.32;;;5.72;;
48987;SDS011;34799;51.440;-2.534;2023-02-28T10:54:19;11.77;;;6.03;;
48987;SDS011;34799;51.440;-2.534;2023-02-28T10:59:33;12.65;;;5.57;;
48987;SDS011;34799;51.440;-2.534;2023-02-28T11:02:01;12.15;;;5.60;;
48987;SDS011;34799;51.440;-2.534;2023-02-28T11:09:55;11.93;;;5.07;;
48987;SDS011;34799;51.440;-2.534;2023-02-28T11:12:37;12.02;;;5.15;;
48987;SDS011;34799;51.440;-2.534;2023-02-28T11:15:34;10.52;;;5.05;;
48987;SDS011;34799;51.440;-2.534;2023-02-28T11:18:20;13.50;;;5.68;;
48987;SDS011;34799;51.440;-2.534;2023-02-28T11:20:50;8.32;;;4.30;;
48987;SDS011;34799;51.440;-2.534;2023-02-28T11:23:18;12.38;;;5.38;;
48987;SDS011;34799;51.440;-2.534;2023-02-28T11:25:47;10.48;;;4.93;;
48987;SDS011;34799;51.440;-2.534;2023-02-28T11:28:26;11.93;;;4.75;;
48987;SDS011;34799;51.440;-2.534;2023-02-28T11:31:04;12.60;;;5.38;;
48987;SDS011;34799;51.440;-2.534;2023-02-28T11:36:30;12.52;;;5.28;;
48987;SDS011;34799;51.440;-2.534;2023-02-28T11:38:59;12.52;;;5.20;;
48987;SDS011;34799;51.440;-2.534;2023-02-28T11:41:33;13.00;;;5.57;;
48987;SDS011;34799;51.440;-2.534;2023-02-28T11:46:51;12.23;;;5.47;;
48987;SDS011;34799;51.440;-2.534;2023-02-28T11:49:31;16.58;;;6.38;;
48987;SDS011;34799;51.440;-2.534;2023-02-28T11:52:36;12.20;;;5.70;;
48987;SDS011;34799;51.440;-2.534;2023-02-28T12:06:18;11.60;;;5.35;;
48987;SDS011;34799;51.440;-2.534;2023-02-28T12:23:45;8.27;;;3.95;;
48987;SDS011;34799;51.440;-2.534;2023-02-28T12:29:26;7.35;;;3.28;;
48987;SDS011;34799;51.440;-2.534;2023-02-28T12:34:46;7.70;;;3.47;;
48987;SDS011;34799;51.440;-2.534;2023-02-28T12:37:17;9.10;;;4.05;;
48987;SDS011;34799;51.440;-2.534;2023-02-28T12:39:53;8.43;;;3.65;;
48987;SDS011;34799;51.440;-2.534;2023-02-28T12:42:27;9.88;;;3.63;;
48987;SDS011;34799;51.440;-2.534;2023-02-28T12:45:08;10.50;;;3.17;;
48987;SDS011;34799;51.440;-2.534;2023-02-28T12:47:46;7.95;;;3.38;;
48987;SDS011;34799;51.440;-2.534;2023-02-28T12:50:20;6.45;;;2.72;;
48987;SDS011;34799;51.440;-2.534;2023-02-28T12:53:03;6.22;;;3.28;;
48987;SDS011;34799;51.440;-2.534;2023-02-28T13:01:32;5.45;;;2.78;;
48987;SDS011;34799;51.440;-2.534;2023-02-28T13:09:52;5.65;;;2.75;;
48987;SDS011;34799;51.440;-2.534;2023-02-28T13:12:21;6.70;;;3.10;;
48987;SDS011;34799;51.440;-2.534;2023-02-28T13:14:50;6.63;;;3.22;;
48987;SDS011;34799;51.440;-2.534;2023-02-28T13:17:27;6.57;;;2.72;;
48987;SDS011;34799;51.440;-2.534;2023-02-28T13:19:56;6.40;;;3.15;;
48987;SDS011;34799;51.440;-2.534;2023-02-28T13:25:56;6.22;;;2.95;;
48987;SDS011;34799;51.440;-2.534;2023-02-28T13:28:01;5.65;;;2.90;;
48987;SDS011;34799;51.440;-2.534;2023-02-28T13:33:30;4.75;;;2.55;;
48987;SDS011;34799;51.440;-2.534;2023-02-28T13:38:55;6.40;;;3.13;;
48987;SDS011;34799;51.440;-2.534;2023-02-28T13:49:30;6.97;;;3.30;;
48987;SDS011;34799;51.440;-2.534;2023-02-28T14:00:53;7.63;;;3.10;;
48987;SDS011;34799;51.440;-2.534;2023-02-28T14:03:41;6.38;;;2.80;;
48987;SDS011;34799;51.440;-2.534;2023-02-28T14:06:23;6.15;;;3.28;;
48987;SDS011;34799;51.440;-2.534;2023-02-28T14:12:49;3.95;;;2.22;;
48987;SDS011;34799;51.440;-2.534;2023-02-28T14:15:04;4.30;;;1.98;;
48987;SDS011;34799;51.440;-2.534;2023-02-28T14:17:55;4.82;;;2.47;;
48987;SDS011;34799;51.440;-2.534;2023-02-28T14:20:24;4.45;;;1.92;;
48987;SDS011;34799;51.440;-2.534;2023-02-28T14:23:00;4.47;;;2.10;;
48987;SDS011;34799;51.440;-2.534;2023-02-28T14:25:33;4.15;;;1.80;;
48987;SDS011;34799;51.440;-2.534;2023-02-28T14:28:19;4.60;;;1.88;;
48987;SDS011;34799;51.440;-2.534;2023-02-28T14:31:00;3.35;;;1.65;;
48987;SDS011;34799;51.440;-2.534;2023-02-28T14:39:10;2.83;;;1.63;;
48987;SDS011;34799;51.440;-2.534;2023-02-28T14:41:44;5.70;;;1.90;;
48987;SDS011;34799;51.440;-2.534;2023-02-28T14:44:17;2.60;;;1.52;;
48987;SDS011;34799;51.440;-2.534;2023-02-28T14:46:50;3.25;;;1.52;;
48987;SDS011;34799;51.440;-2.534;2023-02-28T14:49:25;3.28;;;1.45;;
48987;SDS011;34799;51.440;-2.534;2023-02-28T14:52:06;3.58;;;1.90;;
48987;SDS011;34799;51.440;-2.534;2023-02-28T14:54:51;5.03;;;1.40;;
48987;SDS011;34799;51.440;-2.534;2023-02-28T14:57:28;4.05;;;1.60;;
48987;SDS011;34799;51.440;-2.534;2023-02-28T15:00:06;3.40;;;1.70;;
48987;SDS011;34799;51.440;-2.534;2023-02-28T15:02:50;3.13;;;1.60;;
48987;SDS011;34799;51.440;-2.534;2023-02-28T15:05:25;2.00;;;0.77;;
48987;SDS011;34799;51.440;-2.534;2023-02-28T15:11:00;1.73;;;0.98;;
48987;SDS011;34799;51.440;-2.534;2023-02-28T15:13:36;3.28;;;1.15;;
48987;SDS011;34799;51.440;-2.534;2023-02-28T15:16:23;4.03;;;1.60;;
48987;SDS011;34799;51.440;-2.534;2023-02-28T15:21:29;2.92;;;1.38;;
48987;SDS011;34799;51.440;-2.534;2023-02-28T15:24:04;3.58;;;1.15;;
48987;SDS011;34799;51.440;-2.534;2023-02-28T15:26:51;4.07;;;1.77;;
48987;SDS011;34799;51.440;-2.534;2023-02-28T15:29:24;3.95;;;2.28;;
48987;SDS011;34799;51.440;-2.534;2023-02-28T15:32:01;3.10;;;1.48;;
48987;SDS011;34799;51.440;-2.534;2023-02-28T15:34:35;2.83;;;1.40;;
48987;SDS011;34799;51.440;-2.534;2023-02-28T15:42:38;3.95;;;1.55;;
48987;SDS011;34799;51.440;-2.534;2023-02-28T15:45:06;3.58;;;1.80;;
48987;SDS011;34799;51.440;-2.534;2023-02-28T15:47:55;3.17;;;1.77;;
48987;SDS011;34799;51.440;-2.534;2023-02-28T15:50:29;4.03;;;2.05;;
48987;SDS011;34799;51.440;-2.534;2023-02-28T15:52:57;2.80;;;1.23;;
48987;SDS011;34799;51.440;-2.534;2023-02-28T15:55:26;4.60;;;1.30;;
48987;SDS011;34799;51.440;-2.534;2023-02-28T15:57:56;4.13;;;1.30;;
48987;SDS011;34799;51.440;-2.534;2023-02-28T16:00:28;2.22;;;1.15;;
48987;SDS011;34799;51.440;-2.534;2023-02-28T16:02:57;3.85;;;1.90;;
48987;SDS011;34799;51.440;-2.534;2023-02-28T16:05:26;2.33;;;1.17;;
48987;SDS011;34799;51.440;-2.534;2023-02-28T16:07:59;2.33;;;1.40;;
48987;SDS011;34799;51.440;-2.534;2023-02-28T16:10:29;3.13;;;1.33;;
48987;SDS011;34799;51.440;-2.534;2023-02-28T16:12:56;4.10;;;1.25;;
48987;SDS011;34799;51.440;-2.534;2023-02-28T16:15:27;2.03;;;0.98;;
48987;SDS011;34799;51.440;-2.534;2023-02-28T16:17:56;2.28;;;1.40;;
48987;SDS011;34799;51.440;-2.534;2023-02-28T16:20:28;2.85;;;0.90;;
48987;SDS011;34799;51.440;-2.534;2023-02-28T16:22:57;2.97;;;1.45;;
48987;SDS011;34799;51.440;-2.534;2023-02-28T16:25:38;2.38;;;0.98;;
48987;SDS011;34799;51.440;-2.534;2023-02-28T16:28:28;2.05;;;1.05;;
48987;SDS011;34799;51.440;-2.534;2023-02-28T16:31:02;2.05;;;1.00;;
48987;SDS011;34799;51.440;-2.534;2023-02-28T16:33:32;1.92;;;0.88;;
48987;SDS011;34799;51.440;-2.534;2023-02-28T16:36:00;1.83;;;1.00;;
48987;SDS011;34799;51.440;-2.534;2023-02-28T16:38:27;3.38;;;1.23;;
48987;SDS011;34799;51.440;-2.534;2023-02-28T16:40:55;1.98;;;0.82;;
48987;SDS011;34799;51.440;-2.534;2023-02-28T16:43:25;5.35;;;1.45;;
48987;SDS011;34799;51.440;-2.534;2023-02-28T16:45:56;1.95;;;1.15;;
48987;SDS011;34799;51.440;-2.534;2023-02-28T16:48:27;4.35;;;1.17;;
48987;SDS011;34799;51.440;-2.534;2023-02-28T16:50:54;2.08;;;1.15;;
48987;SDS011;34799;51.440;-2.534;2023-02-28T16:53:21;3.17;;;0.95;;
48987;SDS011;34799;51.440;-2.534;2023-02-28T16:55:48;1.83;;;0.73;;
48987;SDS011;34799;51.440;-2.534;2023-02-28T16:58:17;6.05;;;1.50;;
48987;SDS011;34799;51.440;-2.534;2023-02-28T17:00:48;3.20;;;1.10;;
48987;SDS011;34799;51.440;-2.534;2023-02-28T17:03:20;1.83;;;0.70;;
48987;SDS011;34799;51.440;-2.534;2023-02-28T17:05:58;2.75;;;0.80;;
48987;SDS011;34799;51.440;-2.534;2023-02-28T17:08:25;2.47;;;1.00;;
48987;SDS011;34799;51.440;-2.534;2023-02-28T17:10:54;4.22;;;1.13;;
48987;SDS011;34799;51.440;-2.534;2023-02-28T17:13:22;2.72;;;1.10;;
48987;SDS011;34799;51.440;-2.534;2023-02-28T17:15:48;1.77;;;0.75;;
48987;SDS011;34799;51.440;-2.534;2023-02-28T17:18:17;2.45;;;0.93;;
48987;SDS011;34799;51.440;-2.534;2023-02-28T17:20:45;2.53;;;1.00;;
48987;SDS011;34799;51.440;-2.534;2023-02-28T17:23:14;1.90;;;0.90;;
48987;SDS011;34799;51.440;-2.534;2023-02-28T17:25:42;4.07;;;1.73;;
48987;SDS011;34799;51.440;-2.534;2023-02-28T17:28:21;2.25;;;1.25;;